Aeroporto :
LOGIN :

Iscrizione | Disclaimer

   EN    FR    IT 

 










Sommario :    VFR   VFR Marginale   IFR   IFR Intensivo   IFR Molto Intensivo
Visibilità : 
Base nubi : 
>= 8 km
>= 3000ft
5 / 8 km
1000 / 3000 ft
1500m / 5 km
500 / 1000 ft
800 / 1500m
200 / 500 ft
< 800m
< 200 ft
Simboli :   Temporali  Nebbia  Neve Forte  Precipitazioni Forti  Vento > 20 kt
SIGMETs :   Varie  Temporali  Ghiacco  Turbolenza  Onda orograficha  Ceneri Vulcaniche







- Altitudine del aeroporto : 348 ft
- Codice IATA : STN
- Carte del aeroporto


EGSS - London Stansted

ULTIMO METAR :
  • 180650Z AUTO 22006KT 9999 NCD 15/13 Q1003

METARs OBSOLETI :
  • 180620Z AUTO 23007KT 9999 NCD 14/13 Q1003
  • 180550Z AUTO 23007KT 9999 NCD 14/12 Q1003
  • 180520Z AUTO 20005KT 9999 NCD 14/12 Q1003
  • 180450Z AUTO 21005KT 9999 NCD 14/12 Q1003
  • 180420Z AUTO 22007KT 9999 NCD 14/12 Q1003

TAF TAF EGSS
Valido dal 18 a 06 ore il 19 a 12 ore UTC


180500Z 1806/1912 23010KT 9999 FEW014 SCT025
PROB40
TEMPO 1808/1819 7000 SHRA
PROB30
TEMPO 1809/1812 BKN014
TEMPO 1812/1819 24016G26KT
PROB40
TEMPO 1910/1912 7000 SHRA
ATIS : +44 1279 669 325
Nessun NOTAM noto per questo aeroporto.



MetMap, La meteo Aeronautica in un colpo d'occhio ! - Copyright ORBIFLY Dicembre 2007 - Disclaimer

ORBIFLY MET'MAP TEAM :

Programmazione e sviluppo : Alexandra Zaïnal
Concezione e sviluppo : Baudouin d'Aumeries
Co-Programmazione e sviluppo : Marc-Olivier Méhu
Supporto tecnico e logistico : Manuel Goepfert
Aiuto per la traduzione : Arnaldo La Scala

Contatto : metmap@orbifly.com




FONTI E CREDITI :

   NOAA